Aérodrome :
LOGIN :

S'inscrire | Disclaimer

   EN    FR    IT 

 










Légende :    VFR   VFR Marginal   IFR   IFR Intensif   IFR Très Intensif
Visi : 
Plafond : 
>= 8 km
>= 3000ft
5 à 8 km
1000 à 3000 ft
1500m à 5 km
500 à 1000 ft
800 à 1500m
200 à 500 ft
< 800m
< 200 ft
Symboles :   Orages  Brouillard  Fortes neiges  Fortes précipitations  Vent > 20 kt
SIGMETs :   Divers  Orages  Givrage  Turbulence  Onde Orograph.  Cendres Volcan.






- Altitude de l'aérodrome : 1416 ft
- Code IATA : ZRH


LSZH - Zurich

DERNIER METAR :
  • 041050Z VRB02KT 9999 VCSH FEW016 FEW024TCU SCT075 17/13 Q1017 NOSIG

METARs EXPIRÉS :
  • 041020Z VRB01KT 9999 FEW016 SCT066 16/12 Q1017 NOSIG
  • 040950Z VRB03KT 9999 SCT010 BKN018 16/13 Q1017 NOSIG
  • 040920Z VRB02KT 9999 FEW008 BKN055 15/13 Q1016 NOSIG
  • 040850Z VRB03KT 9999 FEW007 SCT024 BKN055 15/13 Q1016 NOSIG
  • 040820Z 29003KT 9999 -RA FEW006 BKN025 15/13 Q1016 NOSIG

TAF TAF LSZH
Valide du 04 à 09h jusqu'au 05 à 15h UTC


040825Z 0409/0515 VRB03KT 9000 -RA FEW005 SCT020 BKN030 TX18/0415Z TN09/0504Z TX24/0515Z
PROB40
TEMPO 0410/0416 SHRA FEW040TCU
PROB30
TEMPO 0414/0418 07005KT
BECMG 0418/0421 CAVOK
PROB40 0500/0506 4000 BR NSC
PROB30 0500/0505 2500 BCFG SCT002
BECMG 0506/0509 05008KT
ATIS : +41 43 816 2295 (DEP) +41 43 816 2294 (ARR)



MET'MAP, la Météo Aéronautique d'un coup d'oeil ! - Copyright ORBIFLY Décembre 2007 - Disclaimer

ORBIFLY MET'MAP TEAM :

Programmation & Développement : Alexandra Zaïnal
Sur une idée originale de : Baudouin d'Aumeries
Assistance à la programmation : Marc-Olivier Méhu
Soutien technique & logistique : Manuel Goepfert

Contact : metmap@orbifly.com




SOURCES & CREDITS :

   NOAA